Fortuna, CA

9:02 AM PDT on August 21, 2014 (GMT -0700)
Rohnerville | Change Station
CLOSE
Current Station
Airport
Location: Fortuna,
Elevation: 394 ft
Nearby Weather Stations

Elev 394 ft 40.55 °N, 124.13 °W | Updated 7 minutes ago

Overcast
Overcast
55 °F
Feels Like 55 °F
N
0
Wind Variable Wind from North

Today
High -- | Low -- °F
--% Chance of Precip.
Yesterday
High -- | Low -- °F
Precip. -- in
6:33 AM 8:05 PM
Waning Crescent, 13% visible
Pressure 30.00 in
Visibility 6.0 miles
Clouds Overcast 300 ft
Dew Point 55 °F
Humidity 100%
Rainfall 0.00 in
Snow Depth Not available.
UV 1 out of 12
Pollen 6.90 out of 12
Air Quality Not available.
Flu Activity Not available.
METAR KFOT 211555Z AUTO 00000KT 6SM OVC003 13/13 A3000 RMK AO1

More Conditions Fewer Conditions

Pressure 30.00 in
Visibility 6.0 miles
Clouds Overcast 300 ft
Dew Point 55 °F
Humidity 100%
Rainfall 0.00 in
Snow Depth Not available.
UV 1 out of 12
Pollen 6.90 out of 12
Air Quality Not available.
Flu Activity Not available.
METAR KFOT 211555Z AUTO 00000KT 6SM OVC003 13/13 A3000 RMK AO1

More Conditions Fewer Conditions

10-Day Weather Forecast

Almanac

Astronomy

Aug. 21, 2014 Rise Set
Actual Time 6:33 AM PDT 8:05 PM PDT
Civil Twilight 6:04 AM PDT 8:34 PM PDT
Nautical Twilight 5:29 AM PDT 9:08 PM PDT
Astronomical Twilight 4:52 AM PDT 9:45 PM PDT
Moon 3:07 AM PDT 5:38 PM PDT
Length of Visible Light 14h 29m
Length of Day
13h 32m
Tomorrow will be 2m 28s shorter.
Waning Crescent, 13% of the Moon is Illuminated
Today
Waning Crescent
Aug 25
New
Sep 2
First Quarter
Sep 8
Full
Sep 15
Last Quarter

Today's Extremes

State Highs State Lows

Community

WunderPhotos

Upload Photos

1,745,950 photos uploaded!

Nearby

Snow Depth

Station Depth Elevation
Adin Mountain 1 in 6200 ft
Crowder Flat 0 in 5100 ft
Cedar Pass 1 in 7100 ft
CSS Lab 1 in 6900 ft
Independence Creek 0 in 6500 ft

Earthquake Activity

City Distance Mag. Time & Date
Crescent City, California 115 miles 2.8 2:15 PM PDT
2014-08-15
Minimum magnitude displayed is 2.5.

Coastal Water Temperatures

Place Temperature
Crescent City, CA 60.1 °F
North Spit, CA 60.1 °F
Port Orford, OR 48.9 °F

Nearby Weather Stations